Terminal Aerodrome Forecast
Issued by NWS

Home | Current Version | Previous Version | Text Only | Print | Product List | Glossary On
Versions: 1 2 3 4 5 6 7 8 9 10 11 12
000
FTUS42 KMLB 030523
TAFSFB
TAF
KSFB 030523Z 0306/0406 00000KT P6SM SKC
     FM031400 07010KT P6SM FEW040
     FM031900 08013G20KT P6SM SCT060
     FM040000 09009KT P6SM FEW050=

USA.gov is the U.S. government's official web portal to all federal, state and local government web resources and services.